Etusivu
METAR-TAF:

METAR-TAF

Lentoasemat :

Rarotonga, Cookinsaaret

Rarotongan kansainvälinen lentoasema

Leveyspiiri: 21-12S, Pituuspiiri: 159-49W, korkeus merenpinnasta: 7 m

Tämänhetkinen sää

Tämä raportti tehtiin 45 minuuttia sitten, kello 01.00 UTC
Tuuli 12 kn etelästä/kaakosta
Lämpötila 23°C
Kosteus 61%
Ilmanpaine 1016 hPa
Näkyvyys 10 km tai enemmän
Hajonneita pilviä 2000 ft:n korkeudessa
heikkoja vesikuuroja

METAR: NCRG 230100Z 16012KT 9999 -SHRA BKN020 23/15 Q1016

Aika: 15:45 (01:45 UTC)

Sääennuste

Tämä raportti tehtiin 2 tuntia ja 45 minuuttia sitten, kello 23.00 UTC
Ennuste voimassa 23. päivästä klo 00 UTC - 23. päivään klo 24 UTC
Tuuli 12 kn kaakosta
Näkyvyys 10 km tai enemmän
Hajanaisia pilviä 2300 ft:n korkeudessa

TAF: NCRG 222300Z 2300/2324 14012KT 9999 SCT023

Säähavainnot ja -ennusteet yli 4000 lentoasemalta (METAR- ja TAF-raportit).

Käytössä olevat sääasemat on merkitty karttaan keltaisilla ja punaisilla pisteillä.

Aseta hiiri pisteen päälle nähdäksesi sääaseman nimen.

Klikkaa sitten nähdäksesi säähavainnot ja -ennusteet.

Kartan vaihtaminen: klikkaa mustalla rastilla varustettuja vihreitä pisteitä, niin voit zoomata sisään; viivalla varustettua vihreää pistettä, niin voit zoomata ulos tai vihreitä nuolia, niin pääset viereisille kartoille.


METAR-TAF: